sensor_id;sensor_type;location;lat;lon;timestamp;pressure;altitude;pressure_sealevel;temperature;humidity
51617;BME280;37697;52.588;13.394;2023-03-19T00:01:06;100875.78;;;8.10;68.60
51617;BME280;37697;52.588;13.394;2023-03-19T00:06:19;100873.39;;;8.06;68.79
51617;BME280;37697;52.588;13.394;2023-03-19T00:11:25;100872.20;;;7.91;68.47
51617;BME280;37697;52.588;13.394;2023-03-19T00:16:31;100874.38;;;7.83;68.82
51617;BME280;37697;52.588;13.394;2023-03-19T00:21:36;100873.58;;;7.78;68.99
51617;BME280;37697;52.588;13.394;2023-03-19T00:26:42;100874.03;;;7.75;69.25
51617;BME280;37697;52.588;13.394;2023-03-19T00:31:47;100869.18;;;7.71;69.33
51617;BME280;37697;52.588;13.394;2023-03-19T00:36:53;100869.83;;;7.60;69.27
51617;BME280;37697;52.588;13.394;2023-03-19T00:41:58;100872.70;;;7.51;69.48
51617;BME280;37697;52.588;13.394;2023-03-19T00:47:04;100875.23;;;7.44;69.51
51617;BME280;37697;52.588;13.394;2023-03-19T00:52:11;100873.35;;;7.33;69.67
51617;BME280;37697;52.588;13.394;2023-03-19T00:57:16;100874.64;;;7.25;69.60
51617;BME280;37697;52.588;13.394;2023-03-19T01:02:21;100871.14;;;7.19;69.84
51617;BME280;37697;52.588;13.394;2023-03-19T01:07:27;100876.46;;;7.15;69.95
51617;BME280;37697;52.588;13.394;2023-03-19T01:12:32;100878.23;;;7.09;69.99
51617;BME280;37697;52.588;13.394;2023-03-19T01:17:38;100884.33;;;7.05;70.13
51617;BME280;37697;52.588;13.394;2023-03-19T01:22:43;100878.79;;;7.00;70.42
51617;BME280;37697;52.588;13.394;2023-03-19T01:27:50;100876.28;;;6.95;70.50
51617;BME280;37697;52.588;13.394;2023-03-19T01:32:56;100884.61;;;6.89;70.45
51617;BME280;37697;52.588;13.394;2023-03-19T01:38:02;100887.02;;;6.74;70.45
51617;BME280;37697;52.588;13.394;2023-03-19T01:43:15;100893.59;;;6.66;70.55
51617;BME280;37697;52.588;13.394;2023-03-19T01:48:27;100897.74;;;6.59;70.67
51617;BME280;37697;52.588;13.394;2023-03-19T01:53:34;100897.70;;;6.53;70.79
51617;BME280;37697;52.588;13.394;2023-03-19T01:58:42;100898.34;;;6.48;71.00
51617;BME280;37697;52.588;13.394;2023-03-19T02:03:50;100893.62;;;6.43;71.02
51617;BME280;37697;52.588;13.394;2023-03-19T02:08:56;100900.41;;;6.42;71.21
51617;BME280;37697;52.588;13.394;2023-03-19T02:14:03;100892.08;;;6.38;71.43
51617;BME280;37697;52.588;13.394;2023-03-19T02:19:12;100882.34;;;6.35;71.51
51617;BME280;37697;52.588;13.394;2023-03-19T02:24:24;100881.90;;;6.33;71.70
51617;BME280;37697;52.588;13.394;2023-03-19T02:29:30;100875.45;;;6.29;71.80
51617;BME280;37697;52.588;13.394;2023-03-19T02:34:38;100879.22;;;6.29;71.82
51617;BME280;37697;52.588;13.394;2023-03-19T02:39:53;100880.80;;;6.30;71.66
51617;BME280;37697;52.588;13.394;2023-03-19T02:45:00;100879.48;;;6.31;71.95
51617;BME280;37697;52.588;13.394;2023-03-19T02:50:08;100879.72;;;6.34;71.77
51617;BME280;37697;52.588;13.394;2023-03-19T02:55:14;100878.29;;;6.36;71.63
51617;BME280;37697;52.588;13.394;2023-03-19T03:00:22;100876.94;;;6.37;71.63
51617;BME280;37697;52.588;13.394;2023-03-19T03:05:27;100878.14;;;6.39;71.50
51617;BME280;37697;52.588;13.394;2023-03-19T03:10:33;100871.08;;;6.41;71.53
51617;BME280;37697;52.588;13.394;2023-03-19T03:15:39;100866.98;;;6.43;71.41
51617;BME280;37697;52.588;13.394;2023-03-19T03:20:45;100866.48;;;6.46;71.29
51617;BME280;37697;52.588;13.394;2023-03-19T03:25:51;100869.66;;;6.49;71.06
51617;BME280;37697;52.588;13.394;2023-03-19T03:31:00;100874.05;;;6.51;71.00
51617;BME280;37697;52.588;13.394;2023-03-19T03:36:07;100878.64;;;6.53;70.88
51617;BME280;37697;52.588;13.394;2023-03-19T03:41:12;100890.86;;;6.56;70.76
51617;BME280;37697;52.588;13.394;2023-03-19T03:46:18;100916.89;;;6.54;70.79
51617;BME280;37697;52.588;13.394;2023-03-19T03:51:23;100921.27;;;6.54;71.04
51617;BME280;37697;52.588;13.394;2023-03-19T03:56:28;100924.27;;;6.53;71.10
51617;BME280;37697;52.588;13.394;2023-03-19T04:01:34;100918.20;;;6.54;71.17
51617;BME280;37697;52.588;13.394;2023-03-19T04:06:40;100914.92;;;6.51;71.18
51617;BME280;37697;52.588;13.394;2023-03-19T04:11:45;100921.54;;;6.48;71.56
51617;BME280;37697;52.588;13.394;2023-03-19T04:16:54;100928.98;;;6.46;71.51
51617;BME280;37697;52.588;13.394;2023-03-19T04:21:59;100929.14;;;6.42;71.84
51617;BME280;37697;52.588;13.394;2023-03-19T04:27:08;100934.45;;;6.42;71.89
51617;BME280;37697;52.588;13.394;2023-03-19T04:32:13;100940.96;;;6.43;72.05
51617;BME280;37697;52.588;13.394;2023-03-19T04:37:19;100944.09;;;6.42;72.21
51617;BME280;37697;52.588;13.394;2023-03-19T04:42:25;100954.31;;;6.43;72.17
51617;BME280;37697;52.588;13.394;2023-03-19T04:47:30;100956.55;;;6.45;72.31
51617;BME280;37697;52.588;13.394;2023-03-19T04:52:36;100964.92;;;6.41;72.54
51617;BME280;37697;52.588;13.394;2023-03-19T04:57:42;100961.77;;;6.35;72.53
51617;BME280;37697;52.588;13.394;2023-03-19T05:02:47;100962.95;;;6.39;72.93
51617;BME280;37697;52.588;13.394;2023-03-19T05:07:53;100966.52;;;6.47;72.63
51617;BME280;37697;52.588;13.394;2023-03-19T05:12:58;100970.82;;;6.56;72.46
51617;BME280;37697;52.588;13.394;2023-03-19T05:18:03;100975.91;;;6.65;72.43
51617;BME280;37697;52.588;13.394;2023-03-19T05:23:09;100971.87;;;6.67;72.91
51617;BME280;37697;52.588;13.394;2023-03-19T05:28:14;100961.95;;;6.64;73.12
51617;BME280;37697;52.588;13.394;2023-03-19T05:33:20;100958.79;;;6.66;74.00
51617;BME280;37697;52.588;13.394;2023-03-19T05:38:27;100980.85;;;6.69;74.53
51617;BME280;37697;52.588;13.394;2023-03-19T05:43:32;100986.77;;;6.71;75.08
51617;BME280;37697;52.588;13.394;2023-03-19T05:48:38;100959.17;;;6.65;75.56
51617;BME280;37697;52.588;13.394;2023-03-19T05:53:43;100946.02;;;6.63;76.22
51617;BME280;37697;52.588;13.394;2023-03-19T05:58:48;100916.91;;;6.64;76.81
51617;BME280;37697;52.588;13.394;2023-03-19T06:03:54;100900.20;;;6.63;77.57
51617;BME280;37697;52.588;13.394;2023-03-19T06:09:00;100895.55;;;6.66;78.02
51617;BME280;37697;52.588;13.394;2023-03-19T06:14:05;100893.37;;;6.74;78.41
51617;BME280;37697;52.588;13.394;2023-03-19T06:19:14;100892.70;;;6.86;79.07
51617;BME280;37697;52.588;13.394;2023-03-19T06:24:19;100895.17;;;6.96;78.95
51617;BME280;37697;52.588;13.394;2023-03-19T06:29:25;100896.75;;;7.09;79.16
51617;BME280;37697;52.588;13.394;2023-03-19T06:34:31;100902.04;;;7.22;79.30
51617;BME280;37697;52.588;13.394;2023-03-19T06:39:36;100902.52;;;7.34;79.69
51617;BME280;37697;52.588;13.394;2023-03-19T06:44:47;100916.77;;;7.51;79.97
51617;BME280;37697;52.588;13.394;2023-03-19T06:49:55;100923.93;;;7.74;80.62
51617;BME280;37697;52.588;13.394;2023-03-19T06:55:00;100948.55;;;8.13;80.82
51617;BME280;37697;52.588;13.394;2023-03-19T07:00:08;101027.46;;;8.46;81.14
51617;BME280;37697;52.588;13.394;2023-03-19T07:05:16;101008.35;;;8.48;80.62
51617;BME280;37697;52.588;13.394;2023-03-19T07:10:21;101009.55;;;8.47;80.58
51617;BME280;37697;52.588;13.394;2023-03-19T07:15:27;101062.06;;;8.44;81.13
51617;BME280;37697;52.588;13.394;2023-03-19T07:20:32;101101.09;;;8.33;81.36
51617;BME280;37697;52.588;13.394;2023-03-19T07:25:38;101072.64;;;8.22;81.90
51617;BME280;37697;52.588;13.394;2023-03-19T07:30:44;101063.11;;;8.15;82.60
51617;BME280;37697;52.588;13.394;2023-03-19T07:35:49;101097.15;;;8.12;82.95
51617;BME280;37697;52.588;13.394;2023-03-19T07:40:55;101068.27;;;8.11;83.81
51617;BME280;37697;52.588;13.394;2023-03-19T07:46:07;101005.52;;;8.11;86.98
51617;BME280;37697;52.588;13.394;2023-03-19T07:51:15;100986.83;;;8.08;86.51
51617;BME280;37697;52.588;13.394;2023-03-19T07:56:20;100988.85;;;8.09;86.75
51617;BME280;37697;52.588;13.394;2023-03-19T08:01:25;100970.58;;;8.11;87.06
51617;BME280;37697;52.588;13.394;2023-03-19T08:06:31;100971.16;;;8.14;87.28
51617;BME280;37697;52.588;13.394;2023-03-19T08:11:36;101006.42;;;8.19;87.09
51617;BME280;37697;52.588;13.394;2023-03-19T08:16:42;101010.02;;;8.25;86.99
51617;BME280;37697;52.588;13.394;2023-03-19T08:21:47;101014.77;;;8.30;87.53
51617;BME280;37697;52.588;13.394;2023-03-19T08:26:53;101008.06;;;8.35;87.51
51617;BME280;37697;52.588;13.394;2023-03-19T08:31:58;101024.27;;;8.40;87.25
51617;BME280;37697;52.588;13.394;2023-03-19T08:37:05;101056.08;;;8.45;87.75
51617;BME280;37697;52.588;13.394;2023-03-19T08:42:11;101072.98;;;8.46;87.51
51617;BME280;37697;52.588;13.394;2023-03-19T08:47:17;101087.56;;;8.47;87.86
51617;BME280;37697;52.588;13.394;2023-03-19T08:52:23;101094.34;;;8.44;87.48
51617;BME280;37697;52.588;13.394;2023-03-19T08:57:30;101084.73;;;8.36;87.32
51617;BME280;37697;52.588;13.394;2023-03-19T09:02:35;101085.34;;;8.31;87.28
51617;BME280;37697;52.588;13.394;2023-03-19T09:07:40;101082.27;;;8.28;87.66
51617;BME280;37697;52.588;13.394;2023-03-19T09:12:46;101074.38;;;8.26;87.44
51617;BME280;37697;52.588;13.394;2023-03-19T09:17:52;101056.39;;;8.26;87.74
51617;BME280;37697;52.588;13.394;2023-03-19T09:22:58;101055.28;;;8.27;88.29
51617;BME280;37697;52.588;13.394;2023-03-19T09:28:03;101054.73;;;8.30;88.65
51617;BME280;37697;52.588;13.394;2023-03-19T09:33:09;101046.20;;;8.34;88.90
51617;BME280;37697;52.588;13.394;2023-03-19T09:38:15;101038.52;;;8.37;89.02
51617;BME280;37697;52.588;13.394;2023-03-19T09:43:48;101030.05;;;8.38;89.05
51617;BME280;37697;52.588;13.394;2023-03-19T09:48:58;101023.45;;;8.43;89.15
51617;BME280;37697;52.588;13.394;2023-03-19T09:54:07;101020.14;;;8.50;89.26
51617;BME280;37697;52.588;13.394;2023-03-19T09:59:18;101013.85;;;8.64;89.31
51617;BME280;37697;52.588;13.394;2023-03-19T10:04:41;101002.98;;;8.98;90.42
51617;BME280;37697;52.588;13.394;2023-03-19T10:09:59;100998.90;;;9.52;90.81
51617;BME280;37697;52.588;13.394;2023-03-19T10:15:19;100997.96;;;9.98;90.65
51617;BME280;37697;52.588;13.394;2023-03-19T10:20:31;100997.67;;;10.27;89.74
51617;BME280;37697;52.588;13.394;2023-03-19T10:25:41;100999.45;;;10.32;89.08
51617;BME280;37697;52.588;13.394;2023-03-19T10:30:56;100999.48;;;10.34;88.84
51617;BME280;37697;52.588;13.394;2023-03-19T10:36:09;101003.73;;;10.36;88.46
51617;BME280;37697;52.588;13.394;2023-03-19T10:41:28;101004.60;;;10.39;88.15
51617;BME280;37697;52.588;13.394;2023-03-19T10:46:39;101003.06;;;10.55;88.40
51617;BME280;37697;52.588;13.394;2023-03-19T10:51:46;101004.29;;;10.74;88.45
51617;BME280;37697;52.588;13.394;2023-03-19T10:56:55;101007.08;;;10.93;88.09
51617;BME280;37697;52.588;13.394;2023-03-19T11:02:06;101009.55;;;11.07;87.19
51617;BME280;37697;52.588;13.394;2023-03-19T11:07:20;101005.63;;;11.23;87.05
51617;BME280;37697;52.588;13.394;2023-03-19T11:12:30;100998.88;;;11.43;87.06
51617;BME280;37697;52.588;13.394;2023-03-19T11:17:40;101000.59;;;11.58;86.13
51617;BME280;37697;52.588;13.394;2023-03-19T11:22:49;101003.17;;;11.65;85.68
51617;BME280;37697;52.588;13.394;2023-03-19T11:28:01;101004.64;;;11.78;85.67
51617;BME280;37697;52.588;13.394;2023-03-19T11:33:16;101007.40;;;11.86;84.81
51617;BME280;37697;52.588;13.394;2023-03-19T11:38:38;101010.25;;;11.94;84.96
51617;BME280;37697;52.588;13.394;2023-03-19T11:43:57;101012.46;;;12.04;84.20
51617;BME280;37697;52.588;13.394;2023-03-19T11:49:20;101011.06;;;11.99;83.38
51617;BME280;37697;52.588;13.394;2023-03-19T11:54:35;101014.19;;;11.94;83.32
51617;BME280;37697;52.588;13.394;2023-03-19T11:59:56;101014.70;;;11.93;83.07
51617;BME280;37697;52.588;13.394;2023-03-19T12:05:21;101014.03;;;11.97;82.73
51617;BME280;37697;52.588;13.394;2023-03-19T12:10:37;101011.02;;;12.04;82.78
51617;BME280;37697;52.588;13.394;2023-03-19T12:15:53;101007.45;;;12.14;82.22
51617;BME280;37697;52.588;13.394;2023-03-19T12:21:05;101008.73;;;12.19;81.73
51617;BME280;37697;52.588;13.394;2023-03-19T12:26:18;101009.59;;;12.23;81.37
51617;BME280;37697;52.588;13.394;2023-03-19T12:31:55;101008.41;;;12.27;81.48
51617;BME280;37697;52.588;13.394;2023-03-19T12:37:13;101007.10;;;12.33;81.38
51617;BME280;37697;52.588;13.394;2023-03-19T12:42:21;100996.78;;;12.46;80.78
51617;BME280;37697;52.588;13.394;2023-03-19T12:47:32;100991.50;;;12.67;80.63
51617;BME280;37697;52.588;13.394;2023-03-19T12:52:50;100990.17;;;12.82;79.82
51617;BME280;37697;52.588;13.394;2023-03-19T12:57:58;100985.15;;;13.00;79.56
51617;BME280;37697;52.588;13.394;2023-03-19T13:03:09;100986.65;;;13.34;79.25
51617;BME280;37697;52.588;13.394;2023-03-19T13:08:22;100984.13;;;13.66;78.95
51617;BME280;37697;52.588;13.394;2023-03-19T13:13:38;100982.10;;;13.89;78.07
51617;BME280;37697;52.588;13.394;2023-03-19T13:18:49;100987.71;;;14.08;77.33
51617;BME280;37697;52.588;13.394;2023-03-19T13:24:05;100984.49;;;14.20;76.47
51617;BME280;37697;52.588;13.394;2023-03-19T13:29:18;100982.42;;;14.26;76.22
51617;BME280;37697;52.588;13.394;2023-03-19T13:34:27;100983.73;;;14.32;75.71
51617;BME280;37697;52.588;13.394;2023-03-19T13:39:34;100980.77;;;14.45;75.11
51617;BME280;37697;52.588;13.394;2023-03-19T13:44:42;100979.59;;;14.50;75.04
51617;BME280;37697;52.588;13.394;2023-03-19T13:50:18;100971.97;;;14.59;74.50
51617;BME280;37697;52.588;13.394;2023-03-19T13:55:43;100972.26;;;14.58;74.51
51617;BME280;37697;52.588;13.394;2023-03-19T14:00:56;100972.23;;;14.55;73.69
51617;BME280;37697;52.588;13.394;2023-03-19T14:06:04;100963.72;;;14.53;73.86
51617;BME280;37697;52.588;13.394;2023-03-19T14:11:10;100960.23;;;14.57;73.81
51617;BME280;37697;52.588;13.394;2023-03-19T14:16:18;100955.35;;;14.59;73.30
51617;BME280;37697;52.588;13.394;2023-03-19T14:21:39;100950.88;;;14.64;73.06
51617;BME280;37697;52.588;13.394;2023-03-19T14:26:51;100942.31;;;14.65;72.79
51617;BME280;37697;52.588;13.394;2023-03-19T14:31:59;100940.64;;;14.69;72.57
51617;BME280;37697;52.588;13.394;2023-03-19T14:37:18;100942.77;;;14.89;72.41
51617;BME280;37697;52.588;13.394;2023-03-19T14:42:29;100943.82;;;15.17;72.10
51617;BME280;37697;52.588;13.394;2023-03-19T14:47:49;100940.63;;;15.40;71.85
51617;BME280;37697;52.588;13.394;2023-03-19T14:53:03;100939.63;;;15.45;71.13
51617;BME280;37697;52.588;13.394;2023-03-19T14:58:11;100933.73;;;15.41;70.90
51617;BME280;37697;52.588;13.394;2023-03-19T15:03:30;100934.19;;;15.44;70.60
51617;BME280;37697;52.588;13.394;2023-03-19T15:08:37;100930.48;;;15.46;70.34
51617;BME280;37697;52.588;13.394;2023-03-19T15:13:55;100929.09;;;15.45;70.11
51617;BME280;37697;52.588;13.394;2023-03-19T15:19:09;100926.98;;;15.39;69.99
51617;BME280;37697;52.588;13.394;2023-03-19T15:24:16;100926.80;;;15.32;69.71
51617;BME280;37697;52.588;13.394;2023-03-19T15:29:32;100925.05;;;15.30;69.58
51617;BME280;37697;52.588;13.394;2023-03-19T15:34:37;100924.49;;;15.21;69.57
51617;BME280;37697;52.588;13.394;2023-03-19T15:39:50;100924.17;;;15.14;68.94
51617;BME280;37697;52.588;13.394;2023-03-19T15:44:57;100923.56;;;15.14;68.39
51617;BME280;37697;52.588;13.394;2023-03-19T15:50:10;100925.31;;;15.20;68.03
51617;BME280;37697;52.588;13.394;2023-03-19T15:55:17;100925.46;;;15.25;67.58
51617;BME280;37697;52.588;13.394;2023-03-19T16:00:25;100927.71;;;15.27;66.78
51617;BME280;37697;52.588;13.394;2023-03-19T16:05:31;100933.36;;;15.28;66.63
51617;BME280;37697;52.588;13.394;2023-03-19T16:10:39;100936.20;;;15.26;66.30
51617;BME280;37697;52.588;13.394;2023-03-19T16:15:52;100934.36;;;15.26;65.87
51617;BME280;37697;52.588;13.394;2023-03-19T16:21:06;100933.23;;;15.23;65.66
51617;BME280;37697;52.588;13.394;2023-03-19T16:26:24;100937.65;;;15.19;65.22
51617;BME280;37697;52.588;13.394;2023-03-19T16:31:39;100944.12;;;15.13;65.00
51617;BME280;37697;52.588;13.394;2023-03-19T16:36:47;100946.81;;;15.06;64.54
51617;BME280;37697;52.588;13.394;2023-03-19T16:42:17;100946.64;;;14.96;64.22
51617;BME280;37697;52.588;13.394;2023-03-19T16:47:30;100951.75;;;14.87;64.07
51617;BME280;37697;52.588;13.394;2023-03-19T16:52:35;100950.88;;;14.78;63.96
51617;BME280;37697;52.588;13.394;2023-03-19T16:57:42;100951.96;;;14.70;63.93
51617;BME280;37697;52.588;13.394;2023-03-19T17:02:48;100951.74;;;14.60;64.04
51617;BME280;37697;52.588;13.394;2023-03-19T17:07:54;100957.88;;;14.48;64.26
51617;BME280;37697;52.588;13.394;2023-03-19T17:13:00;100960.71;;;14.25;64.97
51617;BME280;37697;52.588;13.394;2023-03-19T17:18:11;100957.27;;;14.11;65.79
51617;BME280;37697;52.588;13.394;2023-03-19T17:23:18;100962.63;;;13.95;66.15
51617;BME280;37697;52.588;13.394;2023-03-19T17:28:24;100964.30;;;13.74;66.75
51617;BME280;37697;52.588;13.394;2023-03-19T17:33:30;100972.86;;;13.52;67.31
51617;BME280;37697;52.588;13.394;2023-03-19T17:38:35;100981.05;;;13.38;67.64
51617;BME280;37697;52.588;13.394;2023-03-19T17:43:41;100984.41;;;13.23;67.92
51617;BME280;37697;52.588;13.394;2023-03-19T17:48:47;100983.04;;;13.08;68.15
51617;BME280;37697;52.588;13.394;2023-03-19T17:53:55;100989.75;;;12.81;68.11
51617;BME280;37697;52.588;13.394;2023-03-19T17:59:01;100990.44;;;12.50;68.55
51617;BME280;37697;52.588;13.394;2023-03-19T18:04:08;100990.35;;;12.24;68.85
51617;BME280;37697;52.588;13.394;2023-03-19T18:09:19;100997.68;;;12.08;69.28
51617;BME280;37697;52.588;13.394;2023-03-19T18:14:25;101002.80;;;11.80;69.55
51617;BME280;37697;52.588;13.394;2023-03-19T18:19:34;101003.56;;;11.65;70.09
51617;BME280;37697;52.588;13.394;2023-03-19T18:24:40;101005.71;;;11.53;70.59
51617;BME280;37697;52.588;13.394;2023-03-19T18:29:46;101008.58;;;11.52;71.11
51617;BME280;37697;52.588;13.394;2023-03-19T18:34:51;101011.73;;;11.52;71.41
51617;BME280;37697;52.588;13.394;2023-03-19T18:39:57;101015.19;;;11.47;71.57
51617;BME280;37697;52.588;13.394;2023-03-19T18:45:03;101014.77;;;11.43;71.91
51617;BME280;37697;52.588;13.394;2023-03-19T18:50:20;101018.42;;;11.35;72.04
51617;BME280;37697;52.588;13.394;2023-03-19T18:55:28;101019.49;;;11.33;72.00
51617;BME280;37697;52.588;13.394;2023-03-19T19:00:35;101025.23;;;11.37;71.98
51617;BME280;37697;52.588;13.394;2023-03-19T19:05:42;101025.02;;;11.37;72.10
51617;BME280;37697;52.588;13.394;2023-03-19T19:10:50;101028.35;;;11.36;72.13
51617;BME280;37697;52.588;13.394;2023-03-19T19:15:56;101029.05;;;11.39;72.28
51617;BME280;37697;52.588;13.394;2023-03-19T19:21:02;101031.65;;;11.42;72.33
51617;BME280;37697;52.588;13.394;2023-03-19T19:26:08;101035.95;;;11.39;72.27
51617;BME280;37697;52.588;13.394;2023-03-19T19:31:22;101037.39;;;11.33;72.36
51617;BME280;37697;52.588;13.394;2023-03-19T19:36:29;101042.91;;;11.28;72.36
51617;BME280;37697;52.588;13.394;2023-03-19T19:41:34;101045.98;;;11.23;72.43
51617;BME280;37697;52.588;13.394;2023-03-19T19:46:40;101055.34;;;11.16;72.74
51617;BME280;37697;52.588;13.394;2023-03-19T19:51:46;101050.61;;;11.08;72.91
51617;BME280;37697;52.588;13.394;2023-03-19T19:56:52;101054.31;;;11.05;73.10
51617;BME280;37697;52.588;13.394;2023-03-19T20:01:57;101059.25;;;11.06;73.57
51617;BME280;37697;52.588;13.394;2023-03-19T20:07:02;101057.03;;;11.11;73.76
51617;BME280;37697;52.588;13.394;2023-03-19T20:12:18;101060.05;;;11.15;73.86
51617;BME280;37697;52.588;13.394;2023-03-19T20:17:24;101056.13;;;11.19;73.88
51617;BME280;37697;52.588;13.394;2023-03-19T20:22:31;101053.64;;;11.23;74.02
51617;BME280;37697;52.588;13.394;2023-03-19T20:27:37;101054.89;;;11.28;74.02
51617;BME280;37697;52.588;13.394;2023-03-19T20:32:43;101056.09;;;11.31;73.94
51617;BME280;37697;52.588;13.394;2023-03-19T20:37:49;101060.23;;;11.35;73.95
51617;BME280;37697;52.588;13.394;2023-03-19T20:42:55;101058.69;;;11.38;73.94
51617;BME280;37697;52.588;13.394;2023-03-19T20:48:00;101062.44;;;11.38;73.98
51617;BME280;37697;52.588;13.394;2023-03-19T20:53:06;101064.20;;;11.38;73.91
51617;BME280;37697;52.588;13.394;2023-03-19T20:58:16;101069.64;;;11.39;74.22
51617;BME280;37697;52.588;13.394;2023-03-19T21:03:25;101072.13;;;11.44;74.02
51617;BME280;37697;52.588;13.394;2023-03-19T21:08:34;101073.19;;;11.46;74.08
51617;BME280;37697;52.588;13.394;2023-03-19T21:13:41;101071.08;;;11.47;74.09
51617;BME280;37697;52.588;13.394;2023-03-19T21:18:47;101074.63;;;11.48;74.12
51617;BME280;37697;52.588;13.394;2023-03-19T21:23:55;101079.37;;;11.49;74.00
51617;BME280;37697;52.588;13.394;2023-03-19T21:29:04;101075.64;;;11.47;74.01
51617;BME280;37697;52.588;13.394;2023-03-19T21:34:12;101068.83;;;11.43;74.00
51617;BME280;37697;52.588;13.394;2023-03-19T21:39:18;101069.89;;;11.41;73.98
51617;BME280;37697;52.588;13.394;2023-03-19T21:44:24;101067.01;;;11.38;74.04
51617;BME280;37697;52.588;13.394;2023-03-19T21:49:33;101062.86;;;11.36;74.14
51617;BME280;37697;52.588;13.394;2023-03-19T21:54:39;101064.28;;;11.33;74.14
51617;BME280;37697;52.588;13.394;2023-03-19T21:59:45;101066.48;;;11.27;74.18
51617;BME280;37697;52.588;13.394;2023-03-19T22:04:51;101069.33;;;11.25;74.19
51617;BME280;37697;52.588;13.394;2023-03-19T22:09:56;101071.45;;;11.19;74.15
51617;BME280;37697;52.588;13.394;2023-03-19T22:15:02;101065.79;;;11.11;74.42
51617;BME280;37697;52.588;13.394;2023-03-19T22:20:14;101063.95;;;11.05;74.41
51617;BME280;37697;52.588;13.394;2023-03-19T22:25:20;101063.52;;;11.00;74.36
51617;BME280;37697;52.588;13.394;2023-03-19T22:30:37;101060.95;;;10.84;74.48
51617;BME280;37697;52.588;13.394;2023-03-19T22:35:44;101059.34;;;10.73;74.72
51617;BME280;37697;52.588;13.394;2023-03-19T22:40:51;101062.03;;;10.70;74.87
51617;BME280;37697;52.588;13.394;2023-03-19T22:45:59;101061.80;;;10.62;74.94
51617;BME280;37697;52.588;13.394;2023-03-19T22:51:07;101062.64;;;10.57;74.94
51617;BME280;37697;52.588;13.394;2023-03-19T22:56:13;101065.30;;;10.49;75.08
51617;BME280;37697;52.588;13.394;2023-03-19T23:01:29;101060.23;;;10.38;75.34
51617;BME280;37697;52.588;13.394;2023-03-19T23:06:37;101057.68;;;10.27;75.61
51617;BME280;37697;52.588;13.394;2023-03-19T23:11:42;101054.02;;;10.20;75.66
51617;BME280;37697;52.588;13.394;2023-03-19T23:16:48;101054.98;;;10.07;75.82
51617;BME280;37697;52.588;13.394;2023-03-19T23:21:55;101057.29;;;9.99;76.20
51617;BME280;37697;52.588;13.394;2023-03-19T23:27:02;101066.82;;;9.92;76.20
51617;BME280;37697;52.588;13.394;2023-03-19T23:32:09;101062.83;;;9.90;76.49
51617;BME280;37697;52.588;13.394;2023-03-19T23:37:15;101060.42;;;9.88;76.51
51617;BME280;37697;52.588;13.394;2023-03-19T23:42:25;101057.70;;;9.74;76.51
51617;BME280;37697;52.588;13.394;2023-03-19T23:47:32;101059.17;;;9.70;77.07
51617;BME280;37697;52.588;13.394;2023-03-19T23:52:37;101061.76;;;9.69;77.15
51617;BME280;37697;52.588;13.394;2023-03-19T23:57:43;101064.18;;;9.70;77.47
